Moneymore, United Kingdom
Current Conditions -  °F | °C
As of 6:50 PM on Sunday 21 Dec 2014 (Local Time) from EGAA Reporting Station
Light Rain Light Rain  
Wind Chill: 11°   Ceiling: 800
Heat Index: 11°   Visibility: 2.3mi
Dew Point: 11°   Wind: 20mph
Humidity: 100%   Direction: 230°SW
Pressure: 29.83"   Gusts: NA
Location:  54.69°N, 6.67°W
Report Text: EGAA 211850Z 23017KT 3700 -RA SCT003 BKN008 BKN012 11/11 Q1010
Loading
Personal Weather Stations






























Interactive Weather Map New forecast layout! Learn more

10-Day Weather Forecast

Advertisements
Track Severe Weather on mobile